Time;durP1;ratioP1;P1;durP2;ratioP2;P2;SDS_P1;SDS_P2;PMS_P1;PMS_P2;Temp;Humidity;BMP_temperature;BMP_pressure;BME280_temperature;BME280_humidity;BME280_pressure;Samples;Min_cycle;Max_cycle;Signal;HPM_P1;HPM_P2
2023/12/06 00:01:58;;;;;;;20.00;10.00;;;;;;;;;;5101663;28;20130;-67
2023/12/06 00:04:25;;;;;;;18.75;10.57;;;;;;;;;;5106562;28;20063;-66
2023/12/06 00:06:52;;;;;;;21.08;9.60;;;;;;;;;;5106751;28;20055;-66
2023/12/06 00:09:19;;;;;;;23.73;10.30;;;;;;;;;;5107125;28;20044;-66
2023/12/06 00:11:47;;;;;;;21.42;10.02;;;;;;;;;;5105308;28;20048;-66
2023/12/06 00:14:14;;;;;;;19.40;9.73;;;;;;;;;;5100320;28;20055;-66
2023/12/06 00:16:42;;;;;;;20.08;10.90;;;;;;;;;;5098897;28;20036;-67
2023/12/06 00:19:10;;;;;;;20.83;10.13;;;;;;;;;;5111754;28;20554;-66
2023/12/06 00:21:37;;;;;;;23.30;10.23;;;;;;;;;;5110911;28;20050;-67
2023/12/06 00:24:05;;;;;;;18.15;9.93;;;;;;;;;;5108091;28;20138;-67
2023/12/06 00:26:32;;;;;;;22.95;9.88;;;;;;;;;;5106380;28;20048;-67
2023/12/06 00:28:59;;;;;;;22.88;10.35;;;;;;;;;;5112150;28;20486;-66
2023/12/06 00:31:27;;;;;;;18.08;9.85;;;;;;;;;;5111158;28;20039;-66
2023/12/06 00:33:55;;;;;;;24.55;10.63;;;;;;;;;;5106378;28;20043;-67
2023/12/06 00:36:22;;;;;;;20.63;10.10;;;;;;;;;;5110954;28;20049;-66
2023/12/06 00:38:50;;;;;;;20.20;10.20;;;;;;;;;;5102963;28;20039;-67
2023/12/06 00:41:17;;;;;;;20.70;10.57;;;;;;;;;;5110443;28;20467;-66
2023/12/06 00:43:44;;;;;;;18.40;9.77;;;;;;;;;;5111795;28;20127;-66
2023/12/06 00:46:11;;;;;;;16.67;9.90;;;;;;;;;;5107533;28;20388;-66
2023/12/06 00:48:39;;;;;;;19.60;10.23;;;;;;;;;;5092321;28;20063;-66
2023/12/06 00:51:07;;;;;;;19.23;9.38;;;;;;;;;;5109709;28;20501;-67
2023/12/06 00:53:35;;;;;;;17.92;9.48;;;;;;;;;;5109248;28;20054;-66
2023/12/06 00:56:02;;;;;;;14.50;8.90;;;;;;;;;;5103933;28;20044;-65
2023/12/06 00:58:29;;;;;;;19.70;9.55;;;;;;;;;;5107745;28;20063;-67
2023/12/06 01:00:57;;;;;;;20.77;10.77;;;;;;;;;;5111752;28;20043;-66
2023/12/06 01:03:24;;;;;;;20.77;10.23;;;;;;;;;;5101917;28;20553;-67
2023/12/06 01:05:51;;;;;;;27.45;10.57;;;;;;;;;;5108508;28;20039;-66
2023/12/06 01:08:20;;;;;;;23.48;10.07;;;;;;;;;;5102752;28;20059;-66
2023/12/06 01:10:47;;;;;;;21.65;9.57;;;;;;;;;;5102733;28;20447;-66
2023/12/06 01:13:15;;;;;;;19.77;9.50;;;;;;;;;;5108459;28;20116;-66
2023/12/06 01:15:42;;;;;;;19.80;9.60;;;;;;;;;;5104755;28;20051;-67
2023/12/06 01:18:09;;;;;;;17.48;9.05;;;;;;;;;;5107522;28;20036;-66
2023/12/06 01:20:38;;;;;;;16.42;8.90;;;;;;;;;;5105802;28;20051;-67
2023/12/06 01:23:05;;;;;;;19.38;9.20;;;;;;;;;;5105167;28;20083;-66
2023/12/06 01:25:34;;;;;;;15.07;8.70;;;;;;;;;;5102524;28;20484;-67
2023/12/06 01:28:01;;;;;;;20.65;8.23;;;;;;;;;;5103902;28;20044;-66
2023/12/06 01:30:28;;;;;;;17.52;8.05;;;;;;;;;;5099120;28;20058;-66
2023/12/06 01:32:55;;;;;;;13.10;7.72;;;;;;;;;;5107842;28;20059;-66
2023/12/06 01:35:23;;;;;;;14.52;7.88;;;;;;;;;;5102616;28;20499;-66
2023/12/06 01:37:50;;;;;;;15.32;7.60;;;;;;;;;;5099485;28;20538;-66
2023/12/06 01:40:17;;;;;;;14.00;7.38;;;;;;;;;;5106295;28;20125;-66
2023/12/06 01:42:47;;;;;;;18.40;7.28;;;;;;;;;;5107754;28;20053;-66
2023/12/06 01:45:14;;;;;;;15.10;6.90;;;;;;;;;;5106626;28;20043;-66
2023/12/06 01:47:42;;;;;;;14.57;7.28;;;;;;;;;;5106103;28;20043;-67
2023/12/06 01:50:11;;;;;;;12.05;6.75;;;;;;;;;;5104384;28;20522;-67
2023/12/06 01:52:38;;;;;;;16.45;6.95;;;;;;;;;;5102788;28;20054;-67
2023/12/06 01:55:06;;;;;;;14.77;6.65;;;;;;;;;;5104648;28;20100;-66
2023/12/06 01:57:35;;;;;;;12.45;6.45;;;;;;;;;;5103922;28;20487;-66
2023/12/06 02:00:04;;;;;;;12.75;6.18;;;;;;;;;;5101014;28;20086;-67
2023/12/06 02:02:32;;;;;;;14.20;6.40;;;;;;;;;;5109653;28;20534;-67
2023/12/06 02:04:59;;;;;;;13.75;6.30;;;;;;;;;;5107824;28;20047;-66
2023/12/06 02:07:28;;;;;;;18.38;7.00;;;;;;;;;;5106474;28;20429;-66
2023/12/06 02:09:55;;;;;;;12.93;6.20;;;;;;;;;;5108509;28;20130;-67
2023/12/06 02:12:22;;;;;;;12.27;6.28;;;;;;;;;;5103869;28;20059;-66
2023/12/06 02:14:49;;;;;;;15.20;7.47;;;;;;;;;;5107578;28;20078;-66
2023/12/06 02:17:18;;;;;;;14.05;7.00;;;;;;;;;;5103733;28;20055;-66
2023/12/06 02:19:46;;;;;;;13.70;7.28;;;;;;;;;;5107624;28;20059;-66
2023/12/06 02:22:14;;;;;;;17.73;7.05;;;;;;;;;;5098823;28;20402;-65
2023/12/06 02:24:42;;;;;;;12.98;6.95;;;;;;;;;;5109510;28;20050;-66
2023/12/06 02:27:11;;;;;;;15.52;6.78;;;;;;;;;;5107330;28;20047;-66
2023/12/06 02:29:39;;;;;;;15.07;6.80;;;;;;;;;;5105673;28;20040;-66
2023/12/06 02:32:06;;;;;;;15.15;7.30;;;;;;;;;;5106051;28;20527;-66
2023/12/06 02:34:34;;;;;;;15.23;7.13;;;;;;;;;;5101018;28;20501;-66
2023/12/06 02:37:02;;;;;;;11.73;7.47;;;;;;;;;;5109270;28;20042;-66
2023/12/06 02:39:31;;;;;;;13.88;7.18;;;;;;;;;;5106853;28;20046;-66
2023/12/06 02:41:58;;;;;;;16.23;7.78;;;;;;;;;;5108808;28;20075;-66
2023/12/06 02:44:27;;;;;;;14.55;7.80;;;;;;;;;;5099393;28;20044;-66
2023/12/06 02:46:55;;;;;;;14.30;7.53;;;;;;;;;;5107760;28;20502;-66
2023/12/06 02:49:22;;;;;;;13.77;7.72;;;;;;;;;;5104764;28;20047;-66
2023/12/06 02:51:49;;;;;;;15.48;7.13;;;;;;;;;;5099683;28;20056;-66
2023/12/06 02:54:16;;;;;;;12.55;7.72;;;;;;;;;;5105524;28;20043;-66
2023/12/06 02:56:44;;;;;;;15.02;7.22;;;;;;;;;;5087711;28;20044;-66
2023/12/06 02:59:11;;;;;;;12.85;7.10;;;;;;;;;;5097008;28;20047;-66
2023/12/06 03:01:39;;;;;;;12.02;7.25;;;;;;;;;;5106984;28;20047;-65
2023/12/06 03:04:07;;;;;;;19.75;7.80;;;;;;;;;;5101363;28;20047;-66
2023/12/06 03:06:35;;;;;;;12.13;6.88;;;;;;;;;;5102897;28;20525;-66
2023/12/06 03:09:02;;;;;;;15.80;7.55;;;;;;;;;;5105259;28;20048;-66
2023/12/06 03:11:29;;;;;;;14.68;6.97;;;;;;;;;;5088113;28;20482;-67
2023/12/06 03:13:56;;;;;;;12.32;6.50;;;;;;;;;;5097125;28;20570;-66
2023/12/06 03:16:24;;;;;;;12.75;7.20;;;;;;;;;;5103970;28;20036;-66
2023/12/06 03:18:53;;;;;;;13.00;6.93;;;;;;;;;;5106739;28;20052;-67
2023/12/06 03:21:20;;;;;;;14.07;7.10;;;;;;;;;;5108426;28;20122;-66
2023/12/06 03:23:48;;;;;;;13.98;7.72;;;;;;;;;;5106840;28;20789;-66
2023/12/06 03:26:15;;;;;;;14.80;6.60;;;;;;;;;;5101414;28;20048;-66
2023/12/06 03:28:42;;;;;;;9.98;6.45;;;;;;;;;;5107160;28;20044;-67
2023/12/06 03:31:09;;;;;;;14.02;6.63;;;;;;;;;;5104962;28;20047;-66
2023/12/06 03:33:37;;;;;;;10.90;6.53;;;;;;;;;;5105343;28;20138;-66
2023/12/06 03:36:05;;;;;;;14.57;6.38;;;;;;;;;;5107496;28;20047;-66
2023/12/06 03:38:33;;;;;;;20.33;6.70;;;;;;;;;;5108383;28;20762;-66
2023/12/06 03:41:01;;;;;;;13.35;6.78;;;;;;;;;;5105392;28;20054;-66
2023/12/06 03:43:28;;;;;;;17.50;7.28;;;;;;;;;;5106303;28;20474;-66
2023/12/06 03:45:55;;;;;;;15.02;6.68;;;;;;;;;;5104249;28;20058;-67
2023/12/06 03:48:23;;;;;;;13.38;6.68;;;;;;;;;;5107146;28;20478;-66
2023/12/06 03:50:50;;;;;;;14.13;6.85;;;;;;;;;;5104819;28;20051;-66
2023/12/06 03:53:18;;;;;;;16.98;7.05;;;;;;;;;;5104708;28;20052;-66
2023/12/06 03:55:46;;;;;;;14.65;6.32;;;;;;;;;;5102726;28;20047;-66
2023/12/06 03:58:13;;;;;;;14.30;7.05;;;;;;;;;;5107070;28;20483;-64
2023/12/06 04:00:40;;;;;;;15.13;7.22;;;;;;;;;;5101041;28;20050;-66
2023/12/06 04:03:08;;;;;;;15.80;7.38;;;;;;;;;;5105542;28;20048;-66
2023/12/06 04:05:36;;;;;;;12.65;6.70;;;;;;;;;;5104691;28;20466;-66
2023/12/06 04:08:03;;;;;;;10.63;6.43;;;;;;;;;;5101446;28;20044;-66
2023/12/06 04:10:32;;;;;;;10.50;6.97;;;;;;;;;;5086051;28;20458;-66
2023/12/06 04:12:59;;;;;;;11.30;6.55;;;;;;;;;;5098332;28;20047;-66
2023/12/06 04:15:26;;;;;;;15.38;6.95;;;;;;;;;;5093090;28;20454;-65
2023/12/06 04:17:54;;;;;;;13.43;6.25;;;;;;;;;;5087252;28;20058;-66
2023/12/06 04:20:21;;;;;;;11.48;6.82;;;;;;;;;;5106395;28;20071;-67
2023/12/06 04:22:48;;;;;;;16.83;7.07;;;;;;;;;;5105372;28;20487;-67
2023/12/06 04:25:15;;;;;;;13.20;6.97;;;;;;;;;;5095095;28;20048;-67
2023/12/06 04:27:44;;;;;;;10.95;6.22;;;;;;;;;;5105581;28;20056;-67
2023/12/06 04:30:13;;;;;;;11.43;6.35;;;;;;;;;;5104807;28;20043;-67
2023/12/06 04:32:41;;;;;;;12.15;6.10;;;;;;;;;;5089257;28;20062;-66
2023/12/06 04:35:10;;;;;;;13.23;6.97;;;;;;;;;;5107110;28;20057;-67
2023/12/06 04:37:38;;;;;;;11.88;6.50;;;;;;;;;;5104997;28;20089;-66
2023/12/06 04:40:07;;;;;;;10.98;6.03;;;;;;;;;;5106460;28;20108;-66
2023/12/06 04:42:34;;;;;;;12.60;5.93;;;;;;;;;;5105511;28;20054;-67
2023/12/06 04:45:03;;;;;;;13.25;5.93;;;;;;;;;;5103551;28;20048;-66
2023/12/06 04:47:30;;;;;;;13.90;5.88;;;;;;;;;;5107068;28;20162;-66
2023/12/06 04:49:58;;;;;;;12.93;6.53;;;;;;;;;;5101456;28;20054;-67
2023/12/06 04:52:25;;;;;;;11.40;5.65;;;;;;;;;;5099346;28;20558;-67
2023/12/06 04:54:52;;;;;;;13.65;6.28;;;;;;;;;;5097006;28;20054;-67
2023/12/06 04:57:20;;;;;;;12.93;6.28;;;;;;;;;;5093876;28;20484;-66
2023/12/06 04:59:47;;;;;;;14.30;6.57;;;;;;;;;;5107906;28;20134;-66
2023/12/06 05:02:16;;;;;;;13.82;6.18;;;;;;;;;;5106072;28;20055;-66
2023/12/06 05:04:42;;;;;;;14.32;6.70;;;;;;;;;;5105652;28;20399;-67
2023/12/06 05:07:09;;;;;;;14.00;6.30;;;;;;;;;;5101525;28;20585;-67
2023/12/06 05:09:36;;;;;;;16.85;6.72;;;;;;;;;;5093152;28;20089;-66
2023/12/06 05:12:04;;;;;;;11.02;6.00;;;;;;;;;;5108836;28;20484;-66
2023/12/06 05:14:31;;;;;;;12.95;6.45;;;;;;;;;;5090739;28;20144;-66
2023/12/06 05:16:58;;;;;;;11.65;5.85;;;;;;;;;;5105958;28;21714;-66
2023/12/06 05:19:27;;;;;;;10.88;5.80;;;;;;;;;;5108766;28;20165;-67
2023/12/06 05:21:54;;;;;;;11.50;5.28;;;;;;;;;;5107222;28;20052;-66
2023/12/06 05:24:21;;;;;;;12.73;6.05;;;;;;;;;;5109723;28;20043;-67
2023/12/06 05:26:48;;;;;;;14.57;6.28;;;;;;;;;;5107951;28;20060;-67
2023/12/06 05:29:16;;;;;;;46.83;19.92;;;;;;;;;;5108944;28;20132;-66
2023/12/06 05:31:44;;;;;;;37.70;16.30;;;;;;;;;;5106205;28;20044;-67
2023/12/06 05:34:11;;;;;;;62.20;25.20;;;;;;;;;;5099808;28;20047;-67
2023/12/06 05:36:39;;;;;;;49.50;21.80;;;;;;;;;;5108377;28;20048;-66
2023/12/06 05:39:08;;;;;;;31.83;15.82;;;;;;;;;;5110848;28;20048;-66
2023/12/06 05:41:35;;;;;;;24.42;12.32;;;;;;;;;;5104699;28;20422;-66
2023/12/06 05:44:04;;;;;;;17.00;8.35;;;;;;;;;;5089700;28;20790;-66
2023/12/06 05:46:31;;;;;;;12.48;7.63;;;;;;;;;;5108521;28;20043;-66
2023/12/06 05:48:58;;;;;;;14.82;7.80;;;;;;;;;;5105592;28;20052;-66
2023/12/06 05:51:26;;;;;;;13.77;7.18;;;;;;;;;;5106276;28;20050;-66
2023/12/06 05:53:55;;;;;;;16.70;7.70;;;;;;;;;;5105586;28;20083;-66
2023/12/06 05:56:22;;;;;;;13.52;6.70;;;;;;;;;;5108943;28;20055;-66
2023/12/06 05:58:50;;;;;;;12.32;6.05;;;;;;;;;;5105272;28;20487;-66
2023/12/06 06:01:17;;;;;;;11.82;6.35;;;;;;;;;;5105540;28;20044;-67
2023/12/06 06:03:44;;;;;;;15.73;7.20;;;;;;;;;;5098924;28;20047;-67
2023/12/06 06:06:11;;;;;;;11.25;6.32;;;;;;;;;;5107272;28;20059;-67
2023/12/06 06:08:39;;;;;;;12.38;6.45;;;;;;;;;;5102668;28;20046;-67
2023/12/06 06:11:07;;;;;;;14.32;5.90;;;;;;;;;;5085606;28;20066;-67
2023/12/06 06:13:35;;;;;;;16.50;6.60;;;;;;;;;;5103229;28;20071;-67
2023/12/06 06:16:02;;;;;;;8.95;6.03;;;;;;;;;;5100080;28;20044;-66
2023/12/06 06:18:29;;;;;;;11.25;5.60;;;;;;;;;;5106495;28;20727;-66
2023/12/06 06:20:57;;;;;;;10.05;5.80;;;;;;;;;;5079863;28;20134;-66
2023/12/06 06:23:25;;;;;;;12.00;5.68;;;;;;;;;;5103598;28;20072;-66
2023/12/06 06:25:52;;;;;;;14.02;5.28;;;;;;;;;;5097313;28;20063;-66
2023/12/06 06:28:21;;;;;;;10.85;5.35;;;;;;;;;;5099536;28;20079;-66
2023/12/06 06:30:48;;;;;;;13.70;6.30;;;;;;;;;;5102122;28;20048;-67
2023/12/06 06:33:15;;;;;;;13.05;6.00;;;;;;;;;;5099993;28;20055;-67
2023/12/06 06:35:43;;;;;;;13.32;7.03;;;;;;;;;;5093892;28;20048;-66
2023/12/06 06:38:10;;;;;;;20.38;9.27;;;;;;;;;;5093393;28;20048;-66
2023/12/06 06:40:37;;;;;;;21.45;11.05;;;;;;;;;;5108824;28;20050;-66
2023/12/06 06:43:05;;;;;;;12.43;6.18;;;;;;;;;;5104839;28;20058;-67
2023/12/06 06:45:35;;;;;;;13.27;7.80;;;;;;;;;;5089039;28;20535;-67
2023/12/06 06:48:02;;;;;;;11.20;6.10;;;;;;;;;;5107848;28;20158;-66
2023/12/06 06:50:30;;;;;;;9.88;5.97;;;;;;;;;;5104989;28;20047;-67
2023/12/06 06:52:59;;;;;;;11.32;5.43;;;;;;;;;;5100939;28;20134;-66
2023/12/06 06:55:26;;;;;;;12.45;5.80;;;;;;;;;;5096532;28;20127;-67
2023/12/06 06:57:53;;;;;;;10.20;6.15;;;;;;;;;;5098530;28;20047;-66
2023/12/06 07:00:21;;;;;;;12.00;5.47;;;;;;;;;;5100750;28;20095;-66
2023/12/06 07:02:50;;;;;;;10.23;5.05;;;;;;;;;;5105257;28;20056;-66
2023/12/06 07:05:17;;;;;;;12.57;5.72;;;;;;;;;;5101460;28;20062;-66
2023/12/06 07:07:44;;;;;;;12.05;5.70;;;;;;;;;;5100681;28;20509;-67
2023/12/06 07:10:12;;;;;;;12.20;5.32;;;;;;;;;;5107135;28;20459;-66
2023/12/06 07:12:39;;;;;;;8.95;4.45;;;;;;;;;;5103392;28;20488;-67
2023/12/06 07:15:13;;;;;;;13.68;5.28;;;;;;;;;;5096601;28;20051;-67
2023/12/06 07:17:42;;;;;;;8.57;4.63;;;;;;;;;;5101945;28;20054;-67
2023/12/06 07:20:12;;;;;;;9.93;5.05;;;;;;;;;;5105152;28;20566;-67
2023/12/06 07:22:39;;;;;;;10.77;4.70;;;;;;;;;;5107954;28;20043;-67
2023/12/06 07:25:06;;;;;;;12.38;4.80;;;;;;;;;;5096449;28;20141;-67
2023/12/06 07:27:34;;;;;;;8.18;4.13;;;;;;;;;;5108766;28;20048;-66
2023/12/06 07:30:01;;;;;;;11.60;4.60;;;;;;;;;;5098858;28;20043;-65
2023/12/06 07:32:28;;;;;;;8.52;3.92;;;;;;;;;;5107990;28;20508;-67
2023/12/06 07:34:56;;;;;;;11.13;4.30;;;;;;;;;;5106442;28;20047;-66
2023/12/06 07:37:24;;;;;;;9.68;4.38;;;;;;;;;;5107503;28;20483;-66
2023/12/06 07:39:51;;;;;;;9.25;4.50;;;;;;;;;;5101789;28;20052;-67
2023/12/06 07:42:20;;;;;;;9.88;5.15;;;;;;;;;;5086078;28;20052;-66
2023/12/06 07:44:47;;;;;;;9.32;4.93;;;;;;;;;;5107759;28;20048;-66
2023/12/06 07:47:15;;;;;;;10.07;5.28;;;;;;;;;;5107495;28;20375;-65
2023/12/06 07:49:43;;;;;;;11.55;5.25;;;;;;;;;;5084843;28;20097;-67
2023/12/06 07:52:10;;;;;;;10.25;5.70;;;;;;;;;;5105418;28;20498;-67
2023/12/06 07:54:39;;;;;;;9.73;5.28;;;;;;;;;;5105062;28;20048;-66
2023/12/06 07:57:07;;;;;;;11.77;5.32;;;;;;;;;;5102425;28;20043;-66
2023/12/06 07:59:34;;;;;;;10.85;5.93;;;;;;;;;;5100611;28;20039;-66
2023/12/06 08:02:02;;;;;;;12.43;6.35;;;;;;;;;;5105798;28;20048;-66
2023/12/06 08:04:29;;;;;;;13.95;7.72;;;;;;;;;;5107125;28;20478;-66
2023/12/06 08:06:56;;;;;;;14.60;6.28;;;;;;;;;;5100816;28;20050;-66
2023/12/06 08:09:27;;;;;;;9.23;4.97;;;;;;;;;;5106124;28;20206;-67
2023/12/06 08:11:56;;;;;;;7.63;4.60;;;;;;;;;;5104469;28;20048;-67
2023/12/06 08:14:23;;;;;;;10.55;5.63;;;;;;;;;;5106920;28;20506;-66
2023/12/06 08:16:51;;;;;;;10.35;5.13;;;;;;;;;;5096345;28;20052;-66
2023/12/06 08:19:18;;;;;;;11.27;5.07;;;;;;;;;;5107112;28;20122;-67
2023/12/06 08:21:46;;;;;;;20.27;8.50;;;;;;;;;;5098542;28;20047;-67
2023/12/06 08:24:13;;;;;;;16.95;5.78;;;;;;;;;;5079586;28;20052;-66
2023/12/06 08:26:41;;;;;;;8.23;4.43;;;;;;;;;;5106205;28;20051;-66
2023/12/06 08:29:10;;;;;;;9.48;4.55;;;;;;;;;;5097130;28;20071;-67
2023/12/06 08:31:38;;;;;;;11.63;5.25;;;;;;;;;;5104705;28;20044;-67
2023/12/06 08:34:05;;;;;;;12.80;5.00;;;;;;;;;;5110570;28;20055;-66
2023/12/06 08:36:32;;;;;;;10.40;3.85;;;;;;;;;;5108365;28;20043;-66
2023/12/06 08:38:59;;;;;;;6.22;3.15;;;;;;;;;;5112112;28;20062;-67
2023/12/06 08:41:26;;;;;;;7.95;4.22;;;;;;;;;;5108617;28;20390;-66
2023/12/06 08:43:54;;;;;;;8.45;4.15;;;;;;;;;;5111779;28;20055;-67
2023/12/06 08:46:23;;;;;;;9.77;4.22;;;;;;;;;;5091451;28;20407;-67
2023/12/06 08:48:50;;;;;;;10.50;4.22;;;;;;;;;;5108547;28;20097;-67
2023/12/06 08:51:17;;;;;;;7.13;3.83;;;;;;;;;;5107294;28;20450;-65
2023/12/06 08:53:44;;;;;;;12.00;3.92;;;;;;;;;;5111856;27;20043;-67
2023/12/06 08:56:13;;;;;;;9.32;4.03;;;;;;;;;;5109087;28;20069;-67
2023/12/06 08:58:40;;;;;;;6.47;3.90;;;;;;;;;;5098994;28;20051;-67
2023/12/06 09:01:08;;;;;;;9.10;3.50;;;;;;;;;;5107667;28;20054;-67
2023/12/06 09:03:36;;;;;;;11.90;4.40;;;;;;;;;;5099025;28;20126;-66
2023/12/06 09:06:04;;;;;;;7.82;4.28;;;;;;;;;;5097190;28;20051;-66
2023/12/06 09:08:31;;;;;;;12.35;4.65;;;;;;;;;;5104909;28;20043;-67
2023/12/06 09:10:58;;;;;;;7.47;4.03;;;;;;;;;;5110361;28;20521;-67
2023/12/06 09:13:26;;;;;;;9.52;3.72;;;;;;;;;;5104222;28;20036;-66
2023/12/06 09:15:55;;;;;;;8.07;3.63;;;;;;;;;;5085150;28;20054;-67
2023/12/06 09:18:22;;;;;;;8.25;3.55;;;;;;;;;;5082950;28;20561;-67
2023/12/06 09:20:52;;;;;;;16.65;4.43;;;;;;;;;;5106681;28;20052;-67
2023/12/06 09:23:19;;;;;;;8.15;3.92;;;;;;;;;;5107346;28;20047;-66
2023/12/06 09:25:47;;;;;;;10.93;3.88;;;;;;;;;;5108923;28;20703;-67
2023/12/06 09:28:14;;;;;;;8.63;4.40;;;;;;;;;;5107857;28;20044;-66
2023/12/06 09:30:41;;;;;;;8.40;3.83;;;;;;;;;;5106227;28;20048;-67
2023/12/06 09:33:09;;;;;;;11.43;5.30;;;;;;;;;;5089285;28;20066;-66
2023/12/06 09:35:37;;;;;;;8.32;4.28;;;;;;;;;;5107213;28;20387;-67
2023/12/06 09:38:05;;;;;;;8.00;4.68;;;;;;;;;;5107224;28;20399;-66
2023/12/06 09:40:33;;;;;;;8.30;4.90;;;;;;;;;;5109512;28;20043;-66
2023/12/06 09:43:02;;;;;;;17.95;6.15;;;;;;;;;;5078143;28;20051;-66
2023/12/06 09:45:30;;;;;;;10.88;4.53;;;;;;;;;;5105358;28;20044;-66
2023/12/06 09:47:57;;;;;;;8.60;4.35;;;;;;;;;;5104497;28;20066;-67
2023/12/06 09:50:25;;;;;;;9.73;4.50;;;;;;;;;;5085138;28;20051;-67
2023/12/06 09:52:53;;;;;;;10.23;4.15;;;;;;;;;;5092017;28;20052;-65
2023/12/06 09:55:24;;;;;;;7.30;3.83;;;;;;;;;;5088906;28;20479;-67
2023/12/06 09:57:51;;;;;;;9.52;3.78;;;;;;;;;;5099423;28;20093;-66
2023/12/06 10:00:18;;;;;;;9.77;4.78;;;;;;;;;;5097816;28;20079;-67
2023/12/06 10:02:50;;;;;;;11.40;6.25;;;;;;;;;;5101138;28;20054;-67
2023/12/06 10:05:18;;;;;;;11.88;5.25;;;;;;;;;;5087635;28;20055;-67
2023/12/06 10:07:45;;;;;;;12.10;4.35;;;;;;;;;;5103029;28;20046;-66
2023/12/06 10:10:16;;;;;;;12.68;4.57;;;;;;;;;;5101648;28;20043;-67
2023/12/06 10:12:48;;;;;;;14.57;4.60;;;;;;;;;;5103945;28;20055;-67
2023/12/06 10:15:16;;;;;;;7.60;4.50;;;;;;;;;;5104554;28;20058;-66
2023/12/06 10:17:43;;;;;;;9.95;4.63;;;;;;;;;;5109990;28;20059;-67
2023/12/06 10:20:11;;;;;;;11.32;4.45;;;;;;;;;;5087568;28;20058;-67
2023/12/06 10:22:38;;;;;;;10.80;4.57;;;;;;;;;;5109200;28;20121;-67
2023/12/06 10:25:06;;;;;;;7.97;4.68;;;;;;;;;;5108213;28;20048;-66
2023/12/06 10:27:34;;;;;;;12.32;5.88;;;;;;;;;;5073389;28;20083;-66
2023/12/06 10:30:04;;;;;;;10.25;5.03;;;;;;;;;;5099161;28;20047;-66
2023/12/06 10:32:32;;;;;;;10.57;5.07;;;;;;;;;;5109688;28;20075;-67
2023/12/06 10:35:00;;;;;;;7.60;3.65;;;;;;;;;;5107659;28;20135;-66
2023/12/06 10:37:28;;;;;;;7.38;3.88;;;;;;;;;;5107899;28;20043;-66
2023/12/06 10:39:58;;;;;;;8.38;4.32;;;;;;;;;;5108771;28;20525;-66
2023/12/06 10:42:29;;;;;;;8.45;3.90;;;;;;;;;;5100041;28;20039;-66
2023/12/06 10:44:57;;;;;;;7.13;4.20;;;;;;;;;;5107882;28;20051;-67
2023/12/06 10:47:26;;;;;;;7.72;4.28;;;;;;;;;;5098324;28;20048;-67
2023/12/06 10:49:56;;;;;;;6.55;4.18;;;;;;;;;;5107435;28;20044;-66
2023/12/06 10:52:23;;;;;;;12.05;4.13;;;;;;;;;;5106653;28;20051;-67
2023/12/06 10:54:51;;;;;;;7.28;4.38;;;;;;;;;;5105539;28;20150;-66
2023/12/06 10:57:19;;;;;;;9.00;4.20;;;;;;;;;;5101106;28;20052;-66
2023/12/06 10:59:47;;;;;;;11.10;4.60;;;;;;;;;;5099113;28;20055;-67
2023/12/06 11:02:14;;;;;;;7.57;3.97;;;;;;;;;;5095896;28;20043;-66
2023/12/06 11:04:47;;;;;;;10.52;5.00;;;;;;;;;;5103846;28;20044;-67
2023/12/06 11:07:20;;;;;;;16.90;9.45;;;;;;;;;;5104693;28;20045;-67
2023/12/06 11:09:52;;;;;;;6.90;4.00;;;;;;;;;;5099231;28;20083;-67
2023/12/06 11:12:23;;;;;;;12.60;4.10;;;;;;;;;;5107558;28;20054;-67
2023/12/06 11:15:05;;;;;;;6.82;3.92;;;;;;;;;;5090703;28;20047;-66
2023/12/06 11:17:39;;;;;;;7.28;3.50;;;;;;;;;;5081179;28;21161;-67
2023/12/06 11:20:09;;;;;;;8.07;3.90;;;;;;;;;;5108546;28;20491;-67
2023/12/06 11:22:37;;;;;;;6.70;3.47;;;;;;;;;;5104823;28;20048;-67
2023/12/06 11:25:05;;;;;;;10.25;3.65;;;;;;;;;;5098560;28;20348;-65
2023/12/06 11:27:32;;;;;;;12.05;3.65;;;;;;;;;;5109087;28;20051;-65
2023/12/06 11:30:00;;;;;;;6.32;3.40;;;;;;;;;;5106135;28;20039;-65
2023/12/06 11:32:41;;;;;;;7.40;3.28;;;;;;;;;;5106960;28;20047;-65
2023/12/06 11:35:10;;;;;;;8.68;3.60;;;;;;;;;;5103322;28;20092;-65
2023/12/06 11:37:37;;;;;;;8.13;3.60;;;;;;;;;;5087785;28;20524;-63
2023/12/06 11:40:14;;;;;;;8.73;4.00;;;;;;;;;;5104396;28;20055;-65
2023/12/06 11:42:42;;;;;;;10.15;3.40;;;;;;;;;;5104432;28;20050;-65
2023/12/06 11:45:23;;;;;;;6.30;4.07;;;;;;;;;;5089644;28;20055;-65
2023/12/06 11:47:52;;;;;;;9.27;3.80;;;;;;;;;;5107438;28;20052;-64
2023/12/06 11:50:21;;;;;;;5.13;3.30;;;;;;;;;;5106071;28;20100;-65
2023/12/06 11:52:49;;;;;;;4.88;2.90;;;;;;;;;;5104082;28;20051;-64
2023/12/06 11:55:17;;;;;;;7.82;3.22;;;;;;;;;;5100277;28;20108;-64
2023/12/06 11:58:03;;;;;;;4.97;3.22;;;;;;;;;;5104746;28;20161;-64
2023/12/06 12:00:31;;;;;;;7.13;3.38;;;;;;;;;;5100979;28;20033;-65
2023/12/06 12:02:59;;;;;;;7.30;3.83;;;;;;;;;;5104553;28;20128;-64
2023/12/06 12:05:28;;;;;;;8.70;4.05;;;;;;;;;;5086876;28;20051;-64
2023/12/06 12:07:55;;;;;;;8.50;3.70;;;;;;;;;;5107269;28;20105;-65
2023/12/06 12:10:23;;;;;;;7.13;3.55;;;;;;;;;;5103674;28;20040;-65
2023/12/06 12:12:50;;;;;;;6.97;3.95;;;;;;;;;;5107126;28;20048;-65
2023/12/06 12:15:17;;;;;;;5.57;3.63;;;;;;;;;;5101956;28;20051;-65
2023/12/06 12:17:45;;;;;;;8.30;3.88;;;;;;;;;;5103143;28;20040;-65
2023/12/06 12:20:13;;;;;;;7.03;3.92;;;;;;;;;;5108284;28;20050;-64
2023/12/06 12:22:45;;;;;;;7.10;3.50;;;;;;;;;;5111870;28;20063;-63
2023/12/06 12:25:13;;;;;;;8.15;3.78;;;;;;;;;;5110161;28;20040;-64
2023/12/06 12:27:40;;;;;;;8.20;3.40;;;;;;;;;;5111774;28;20505;-65
2023/12/06 12:30:09;;;;;;;9.77;2.92;;;;;;;;;;5108076;28;20044;-65
2023/12/06 12:32:37;;;;;;;5.60;2.83;;;;;;;;;;5093553;28;20071;-65
2023/12/06 12:35:06;;;;;;;5.93;2.90;;;;;;;;;;5109653;28;20048;-65
2023/12/06 12:37:33;;;;;;;7.60;3.17;;;;;;;;;;5105381;28;20066;-65
2023/12/06 12:40:02;;;;;;;5.13;3.08;;;;;;;;;;5105338;28;20093;-65
2023/12/06 12:42:29;;;;;;;8.82;2.90;;;;;;;;;;5104551;28;20043;-64
2023/12/06 12:44:56;;;;;;;6.32;3.00;;;;;;;;;;5109812;28;20051;-64
2023/12/06 12:47:24;;;;;;;5.18;3.00;;;;;;;;;;5109729;28;20044;-64
2023/12/06 12:49:52;;;;;;;5.28;2.63;;;;;;;;;;5105239;28;20048;-64
2023/12/06 12:52:19;;;;;;;5.80;2.50;;;;;;;;;;5105597;28;20185;-65
2023/12/06 12:54:46;;;;;;;4.55;2.33;;;;;;;;;;5104979;28;20039;-65
2023/12/06 12:57:15;;;;;;;5.53;2.55;;;;;;;;;;5105724;28;20039;-64
2023/12/06 12:59:45;;;;;;;6.35;2.72;;;;;;;;;;5109771;28;20043;-65
2023/12/06 13:02:14;;;;;;;6.45;2.40;;;;;;;;;;5109935;28;20044;-65
2023/12/06 13:04:41;;;;;;;8.93;2.17;;;;;;;;;;5108490;28;20044;-65
2023/12/06 13:07:08;;;;;;;4.72;1.95;;;;;;;;;;5105348;28;20052;-65
2023/12/06 13:09:35;;;;;;;5.57;2.30;;;;;;;;;;5100825;28;20047;-65
2023/12/06 13:12:03;;;;;;;7.10;2.33;;;;;;;;;;5091090;28;20094;-64
2023/12/06 13:14:31;;;;;;;5.00;2.00;;;;;;;;;;5096159;28;20135;-65
2023/12/06 13:16:59;;;;;;;4.47;2.00;;;;;;;;;;5103438;28;20074;-65
2023/12/06 13:19:26;;;;;;;7.50;2.40;;;;;;;;;;5102927;28;20220;-60
2023/12/06 13:21:53;;;;;;;4.72;1.92;;;;;;;;;;5106905;28;20142;-59
2023/12/06 13:24:21;;;;;;;5.85;2.88;;;;;;;;;;5110974;28;20051;-59
2023/12/06 13:26:48;;;;;;;3.28;1.80;;;;;;;;;;5108644;28;20429;-60
2023/12/06 13:29:15;;;;;;;3.00;1.67;;;;;;;;;;5109492;28;20055;-60
2023/12/06 13:31:45;;;;;;;4.38;1.80;;;;;;;;;;5108824;28;20062;-60
2023/12/06 13:34:12;;;;;;;4.10;1.63;;;;;;;;;;5102590;28;20430;-60
2023/12/06 13:36:40;;;;;;;6.28;1.77;;;;;;;;;;5107441;27;20123;-59
2023/12/06 13:39:08;;;;;;;3.83;1.90;;;;;;;;;;5111560;28;20043;-60
2023/12/06 13:41:35;;;;;;;3.80;1.90;;;;;;;;;;5104776;28;20055;-60
2023/12/06 13:44:02;;;;;;;2.40;1.35;;;;;;;;;;5110636;28;20486;-60
2023/12/06 13:46:30;;;;;;;4.80;1.63;;;;;;;;;;5104147;28;20048;-60
2023/12/06 13:48:58;;;;;;;6.22;1.88;;;;;;;;;;5105870;28;20134;-61
2023/12/06 13:51:26;;;;;;;3.15;1.65;;;;;;;;;;5087761;28;20050;-59
2023/12/06 13:53:53;;;;;;;4.18;1.60;;;;;;;;;;5102025;28;20048;-60
2023/12/06 13:56:21;;;;;;;5.95;2.15;;;;;;;;;;5104102;28;20713;-61
2023/12/06 13:58:48;;;;;;;3.92;1.90;;;;;;;;;;5104365;28;20055;-60
2023/12/06 14:01:15;;;;;;;4.82;2.05;;;;;;;;;;5089204;28;20495;-59
2023/12/06 14:03:43;;;;;;;5.53;1.85;;;;;;;;;;5108588;28;20052;-61
2023/12/06 14:06:11;;;;;;;4.97;2.28;;;;;;;;;;5103634;28;20048;-60
2023/12/06 14:08:39;;;;;;;5.13;2.00;;;;;;;;;;5103127;28;20043;-59
2023/12/06 14:11:06;;;;;;;5.68;2.20;;;;;;;;;;5105331;28;20040;-59
2023/12/06 14:13:33;;;;;;;3.63;2.00;;;;;;;;;;5099671;28;20887;-59
2023/12/06 14:16:01;;;;;;;3.65;1.95;;;;;;;;;;5106269;28;20057;-60
2023/12/06 14:18:28;;;;;;;3.85;1.88;;;;;;;;;;5101431;28;20051;-61
2023/12/06 14:20:55;;;;;;;4.07;1.83;;;;;;;;;;5108927;28;20100;-60
2023/12/06 14:23:24;;;;;;;4.40;2.05;;;;;;;;;;5100331;28;20052;-59
2023/12/06 14:25:51;;;;;;;3.50;1.88;;;;;;;;;;5080945;28;20384;-59
2023/12/06 14:28:19;;;;;;;5.28;2.00;;;;;;;;;;5097655;28;20412;-60
2023/12/06 14:30:46;;;;;;;4.25;2.25;;;;;;;;;;5100298;28;20445;-59
2023/12/06 14:33:13;;;;;;;6.38;2.28;;;;;;;;;;5108265;27;20056;-60
2023/12/06 14:35:41;;;;;;;4.50;2.03;;;;;;;;;;5106200;28;20043;-59
2023/12/06 14:38:08;;;;;;;7.30;2.20;;;;;;;;;;5107170;28;20051;-59